sensor_id;sensor_type;location;lat;lon;timestamp;P1;durP1;ratioP1;P2;durP2;ratioP2
20884;SDS011;10602;48.000;9.654;2023-05-16T00:01:41;4.93;;;3.13;;
20884;SDS011;10602;48.000;9.654;2023-05-16T00:04:08;11.07;;;3.43;;
20884;SDS011;10602;48.000;9.654;2023-05-16T00:06:36;8.27;;;3.50;;
20884;SDS011;10602;48.000;9.654;2023-05-16T00:09:03;6.60;;;3.07;;
20884;SDS011;10602;48.000;9.654;2023-05-16T00:11:31;8.17;;;3.10;;
20884;SDS011;10602;48.000;9.654;2023-05-16T00:13:59;6.87;;;3.90;;
20884;SDS011;10602;48.000;9.654;2023-05-16T00:16:27;7.50;;;3.50;;
20884;SDS011;10602;48.000;9.654;2023-05-16T00:18:55;6.87;;;3.67;;
20884;SDS011;10602;48.000;9.654;2023-05-16T00:21:24;8.23;;;3.20;;
20884;SDS011;10602;48.000;9.654;2023-05-16T00:23:53;5.80;;;3.27;;
20884;SDS011;10602;48.000;9.654;2023-05-16T00:26:22;3.37;;;3.07;;
20884;SDS011;10602;48.000;9.654;2023-05-16T00:28:49;12.47;;;3.83;;
20884;SDS011;10602;48.000;9.654;2023-05-16T00:31:17;7.87;;;3.90;;
20884;SDS011;10602;48.000;9.654;2023-05-16T00:33:46;7.07;;;3.70;;
20884;SDS011;10602;48.000;9.654;2023-05-16T00:36:14;6.03;;;3.83;;
20884;SDS011;10602;48.000;9.654;2023-05-16T00:38:41;5.03;;;3.70;;
20884;SDS011;10602;48.000;9.654;2023-05-16T00:41:09;8.17;;;4.30;;
20884;SDS011;10602;48.000;9.654;2023-05-16T00:43:36;16.33;;;4.80;;
20884;SDS011;10602;48.000;9.654;2023-05-16T00:46:05;8.00;;;4.17;;
20884;SDS011;10602;48.000;9.654;2023-05-16T00:48:32;20.70;;;4.60;;
20884;SDS011;10602;48.000;9.654;2023-05-16T00:51:00;14.70;;;4.37;;
20884;SDS011;10602;48.000;9.654;2023-05-16T00:53:28;6.67;;;3.70;;
20884;SDS011;10602;48.000;9.654;2023-05-16T00:55:55;8.73;;;3.50;;
20884;SDS011;10602;48.000;9.654;2023-05-16T00:58:23;6.20;;;3.70;;
20884;SDS011;10602;48.000;9.654;2023-05-16T01:00:51;3.70;;;3.20;;
20884;SDS011;10602;48.000;9.654;2023-05-16T01:03:19;4.73;;;3.30;;
20884;SDS011;10602;48.000;9.654;2023-05-16T01:05:46;3.50;;;3.20;;
20884;SDS011;10602;48.000;9.654;2023-05-16T01:08:14;4.80;;;3.37;;
20884;SDS011;10602;48.000;9.654;2023-05-16T01:10:49;3.23;;;2.93;;
20884;SDS011;10602;48.000;9.654;2023-05-16T01:13:47;5.27;;;3.27;;
20884;SDS011;10602;48.000;9.654;2023-05-16T01:18:48;6.83;;;4.77;;
20884;SDS011;10602;48.000;9.654;2023-05-16T01:21:37;4.10;;;3.63;;
20884;SDS011;10602;48.000;9.654;2023-05-16T01:24:13;3.33;;;2.97;;
20884;SDS011;10602;48.000;9.654;2023-05-16T01:26:44;3.90;;;2.97;;
20884;SDS011;10602;48.000;9.654;2023-05-16T01:29:12;3.57;;;3.10;;
20884;SDS011;10602;48.000;9.654;2023-05-16T01:31:41;4.40;;;3.20;;
20884;SDS011;10602;48.000;9.654;2023-05-16T01:34:08;3.57;;;3.27;;
20884;SDS011;10602;48.000;9.654;2023-05-16T01:42:09;3.53;;;3.10;;
20884;SDS011;10602;48.000;9.654;2023-05-16T01:47:18;3.20;;;2.90;;
20884;SDS011;10602;48.000;9.654;2023-05-16T01:50:33;3.00;;;2.70;;
20884;SDS011;10602;48.000;9.654;2023-05-16T01:52:27;3.50;;;3.20;;
20884;SDS011;10602;48.000;9.654;2023-05-16T01:54:58;3.67;;;3.20;;
20884;SDS011;10602;48.000;9.654;2023-05-16T01:57:27;3.57;;;3.27;;
20884;SDS011;10602;48.000;9.654;2023-05-16T01:59:56;3.60;;;3.03;;
20884;SDS011;10602;48.000;9.654;2023-05-16T02:02:24;3.33;;;3.03;;
20884;SDS011;10602;48.000;9.654;2023-05-16T02:04:52;3.23;;;2.93;;
20884;SDS011;10602;48.000;9.654;2023-05-16T02:07:19;3.53;;;2.77;;
20884;SDS011;10602;48.000;9.654;2023-05-16T02:09:47;5.37;;;4.67;;
20884;SDS011;10602;48.000;9.654;2023-05-16T02:12:15;3.67;;;3.10;;
20884;SDS011;10602;48.000;9.654;2023-05-16T02:14:42;7.10;;;3.43;;
20884;SDS011;10602;48.000;9.654;2023-05-16T02:17:10;8.63;;;3.50;;
20884;SDS011;10602;48.000;9.654;2023-05-16T02:19:37;3.80;;;3.30;;
20884;SDS011;10602;48.000;9.654;2023-05-16T02:22:05;4.43;;;3.63;;
20884;SDS011;10602;48.000;9.654;2023-05-16T02:24:32;5.13;;;3.73;;
20884;SDS011;10602;48.000;9.654;2023-05-16T02:27:00;3.60;;;3.27;;
20884;SDS011;10602;48.000;9.654;2023-05-16T02:29:28;3.20;;;2.90;;
20884;SDS011;10602;48.000;9.654;2023-05-16T02:31:55;3.00;;;2.80;;
20884;SDS011;10602;48.000;9.654;2023-05-16T02:34:23;3.63;;;3.33;;
20884;SDS011;10602;48.000;9.654;2023-05-16T02:36:51;3.90;;;3.50;;
20884;SDS011;10602;48.000;9.654;2023-05-16T02:39:18;3.50;;;3.20;;
20884;SDS011;10602;48.000;9.654;2023-05-16T02:41:45;4.63;;;3.30;;
20884;SDS011;10602;48.000;9.654;2023-05-16T02:44:13;3.63;;;3.13;;
20884;SDS011;10602;48.000;9.654;2023-05-16T02:46:40;3.70;;;3.27;;
20884;SDS011;10602;48.000;9.654;2023-05-16T02:49:08;3.50;;;3.13;;
20884;SDS011;10602;48.000;9.654;2023-05-16T02:51:35;3.90;;;3.20;;
20884;SDS011;10602;48.000;9.654;2023-05-16T02:54:03;3.87;;;3.30;;
20884;SDS011;10602;48.000;9.654;2023-05-16T02:56:32;5.67;;;3.63;;
20884;SDS011;10602;48.000;9.654;2023-05-16T02:59:00;4.13;;;3.60;;
20884;SDS011;10602;48.000;9.654;2023-05-16T03:01:29;6.53;;;3.30;;
20884;SDS011;10602;48.000;9.654;2023-05-16T03:03:56;3.43;;;3.10;;
20884;SDS011;10602;48.000;9.654;2023-05-16T03:06:24;8.57;;;3.60;;
20884;SDS011;10602;48.000;9.654;2023-05-16T03:08:51;3.57;;;3.13;;
20884;SDS011;10602;48.000;9.654;2023-05-16T03:11:19;13.70;;;4.50;;
20884;SDS011;10602;48.000;9.654;2023-05-16T03:13:47;18.47;;;5.70;;
20884;SDS011;10602;48.000;9.654;2023-05-16T03:16:15;7.47;;;4.73;;
20884;SDS011;10602;48.000;9.654;2023-05-16T03:18:42;6.53;;;4.20;;
20884;SDS011;10602;48.000;9.654;2023-05-16T03:21:10;4.70;;;3.73;;
20884;SDS011;10602;48.000;9.654;2023-05-16T03:23:37;5.60;;;4.37;;
20884;SDS011;10602;48.000;9.654;2023-05-16T03:26:05;4.20;;;3.60;;
20884;SDS011;10602;48.000;9.654;2023-05-16T03:28:32;4.40;;;3.30;;
20884;SDS011;10602;48.000;9.654;2023-05-16T03:31:00;4.77;;;4.37;;
20884;SDS011;10602;48.000;9.654;2023-05-16T03:33:27;3.90;;;3.47;;
20884;SDS011;10602;48.000;9.654;2023-05-16T03:35:55;4.80;;;3.67;;
20884;SDS011;10602;48.000;9.654;2023-05-16T03:38:22;4.53;;;3.90;;
20884;SDS011;10602;48.000;9.654;2023-05-16T03:40:50;3.90;;;3.50;;
20884;SDS011;10602;48.000;9.654;2023-05-16T03:43:18;4.00;;;3.53;;
20884;SDS011;10602;48.000;9.654;2023-05-16T03:45:45;4.30;;;3.90;;
20884;SDS011;10602;48.000;9.654;2023-05-16T03:48:13;4.77;;;3.70;;
20884;SDS011;10602;48.000;9.654;2023-05-16T03:50:40;5.63;;;3.93;;
20884;SDS011;10602;48.000;9.654;2023-05-16T03:53:08;7.50;;;3.90;;
20884;SDS011;10602;48.000;9.654;2023-05-16T03:55:36;4.37;;;3.97;;
20884;SDS011;10602;48.000;9.654;2023-05-16T03:58:05;4.37;;;3.97;;
20884;SDS011;10602;48.000;9.654;2023-05-16T04:00:33;4.60;;;3.97;;
20884;SDS011;10602;48.000;9.654;2023-05-16T04:03:01;5.83;;;4.00;;
20884;SDS011;10602;48.000;9.654;2023-05-16T04:05:29;4.80;;;4.30;;
20884;SDS011;10602;48.000;9.654;2023-05-16T04:07:56;4.63;;;3.90;;
20884;SDS011;10602;48.000;9.654;2023-05-16T04:10:24;5.00;;;4.50;;
20884;SDS011;10602;48.000;9.654;2023-05-16T04:12:53;57.33;;;46.60;;
20884;SDS011;10602;48.000;9.654;2023-05-16T04:15:20;7.87;;;6.40;;
20884;SDS011;10602;48.000;9.654;2023-05-16T04:17:48;5.00;;;4.60;;
20884;SDS011;10602;48.000;9.654;2023-05-16T04:20:16;4.90;;;4.13;;
20884;SDS011;10602;48.000;9.654;2023-05-16T04:22:45;4.80;;;4.30;;
20884;SDS011;10602;48.000;9.654;2023-05-16T04:25:12;5.90;;;5.23;;
20884;SDS011;10602;48.000;9.654;2023-05-16T04:27:40;6.60;;;4.83;;
20884;SDS011;10602;48.000;9.654;2023-05-16T04:30:08;5.20;;;4.70;;
20884;SDS011;10602;48.000;9.654;2023-05-16T04:32:36;5.90;;;4.83;;
20884;SDS011;10602;48.000;9.654;2023-05-16T04:35:04;6.23;;;5.33;;
20884;SDS011;10602;48.000;9.654;2023-05-16T04:37:33;7.87;;;7.03;;
20884;SDS011;10602;48.000;9.654;2023-05-16T04:40:01;8.20;;;7.40;;
20884;SDS011;10602;48.000;9.654;2023-05-16T04:42:29;7.70;;;6.90;;
20884;SDS011;10602;48.000;9.654;2023-05-16T04:44:57;7.00;;;6.30;;
20884;SDS011;10602;48.000;9.654;2023-05-16T04:47:25;6.80;;;5.77;;
20884;SDS011;10602;48.000;9.654;2023-05-16T04:49:53;6.17;;;5.53;;
20884;SDS011;10602;48.000;9.654;2023-05-16T04:52:20;7.00;;;6.30;;
20884;SDS011;10602;48.000;9.654;2023-05-16T04:54:51;6.20;;;5.53;;
20884;SDS011;10602;48.000;9.654;2023-05-16T04:57:18;6.20;;;5.60;;
20884;SDS011;10602;48.000;9.654;2023-05-16T04:59:46;5.87;;;5.37;;
20884;SDS011;10602;48.000;9.654;2023-05-16T05:02:13;5.73;;;5.13;;
20884;SDS011;10602;48.000;9.654;2023-05-16T05:04:41;7.20;;;5.37;;
20884;SDS011;10602;48.000;9.654;2023-05-16T05:07:08;6.77;;;5.30;;
20884;SDS011;10602;48.000;9.654;2023-05-16T05:09:36;6.93;;;5.53;;
20884;SDS011;10602;48.000;9.654;2023-05-16T05:12:03;7.13;;;5.43;;
20884;SDS011;10602;48.000;9.654;2023-05-16T05:14:32;5.67;;;5.07;;
20884;SDS011;10602;48.000;9.654;2023-05-16T05:17:00;5.73;;;5.13;;
20884;SDS011;10602;48.000;9.654;2023-05-16T05:19:27;5.40;;;4.80;;
20884;SDS011;10602;48.000;9.654;2023-05-16T05:21:55;6.17;;;5.57;;
20884;SDS011;10602;48.000;9.654;2023-05-16T05:24:22;7.27;;;5.07;;
20884;SDS011;10602;48.000;9.654;2023-05-16T05:26:50;6.70;;;6.00;;
20884;SDS011;10602;48.000;9.654;2023-05-16T05:29:17;8.07;;;6.23;;
20884;SDS011;10602;48.000;9.654;2023-05-16T05:31:45;11.60;;;8.63;;
20884;SDS011;10602;48.000;9.654;2023-05-16T05:34:12;10.07;;;8.37;;
20884;SDS011;10602;48.000;9.654;2023-05-16T05:36:40;11.53;;;8.07;;
20884;SDS011;10602;48.000;9.654;2023-05-16T05:39:08;11.37;;;7.83;;
20884;SDS011;10602;48.000;9.654;2023-05-16T05:41:36;16.37;;;10.07;;
20884;SDS011;10602;48.000;9.654;2023-05-16T05:44:04;14.17;;;11.53;;
20884;SDS011;10602;48.000;9.654;2023-05-16T05:46:32;20.50;;;15.20;;
20884;SDS011;10602;48.000;9.654;2023-05-16T05:49:00;19.10;;;14.67;;
20884;SDS011;10602;48.000;9.654;2023-05-16T05:51:28;14.30;;;10.83;;
20884;SDS011;10602;48.000;9.654;2023-05-16T05:53:55;14.23;;;10.30;;
20884;SDS011;10602;48.000;9.654;2023-05-16T05:56:23;13.10;;;10.87;;
20884;SDS011;10602;48.000;9.654;2023-05-16T05:58:51;14.63;;;11.53;;
20884;SDS011;10602;48.000;9.654;2023-05-16T06:01:18;35.30;;;23.07;;
20884;SDS011;10602;48.000;9.654;2023-05-16T06:03:46;34.20;;;22.87;;
20884;SDS011;10602;48.000;9.654;2023-05-16T06:06:14;21.00;;;16.40;;
20884;SDS011;10602;48.000;9.654;2023-05-16T06:08:42;21.30;;;17.40;;
20884;SDS011;10602;48.000;9.654;2023-05-16T06:11:10;19.53;;;16.67;;
20884;SDS011;10602;48.000;9.654;2023-05-16T06:13:37;34.57;;;27.13;;
20884;SDS011;10602;48.000;9.654;2023-05-16T06:16:05;24.13;;;20.10;;
20884;SDS011;10602;48.000;9.654;2023-05-16T06:18:33;19.27;;;15.40;;
20884;SDS011;10602;48.000;9.654;2023-05-16T06:21:00;18.77;;;15.70;;
20884;SDS011;10602;48.000;9.654;2023-05-16T06:23:28;18.63;;;15.13;;
20884;SDS011;10602;48.000;9.654;2023-05-16T06:25:55;16.73;;;13.90;;
20884;SDS011;10602;48.000;9.654;2023-05-16T06:28:23;18.33;;;13.37;;
20884;SDS011;10602;48.000;9.654;2023-05-16T06:30:51;16.57;;;13.83;;
20884;SDS011;10602;48.000;9.654;2023-05-16T06:33:18;17.27;;;14.10;;
20884;SDS011;10602;48.000;9.654;2023-05-16T06:35:46;16.40;;;14.30;;
20884;SDS011;10602;48.000;9.654;2023-05-16T06:38:14;17.17;;;15.37;;
20884;SDS011;10602;48.000;9.654;2023-05-16T06:40:41;19.83;;;15.80;;
20884;SDS011;10602;48.000;9.654;2023-05-16T06:43:09;17.17;;;14.53;;
20884;SDS011;10602;48.000;9.654;2023-05-16T06:45:36;16.30;;;14.03;;
20884;SDS011;10602;48.000;9.654;2023-05-16T06:48:06;16.90;;;15.17;;
20884;SDS011;10602;48.000;9.654;2023-05-16T06:50:33;16.90;;;14.63;;
20884;SDS011;10602;48.000;9.654;2023-05-16T06:53:01;17.53;;;15.07;;
20884;SDS011;10602;48.000;9.654;2023-05-16T06:55:29;17.67;;;15.47;;
20884;SDS011;10602;48.000;9.654;2023-05-16T06:57:59;17.50;;;14.93;;
20884;SDS011;10602;48.000;9.654;2023-05-16T07:00:26;18.07;;;14.43;;
20884;SDS011;10602;48.000;9.654;2023-05-16T07:02:53;19.13;;;15.67;;
20884;SDS011;10602;48.000;9.654;2023-05-16T07:05:21;16.80;;;14.97;;
20884;SDS011;10602;48.000;9.654;2023-05-16T07:07:48;17.23;;;14.83;;
20884;SDS011;10602;48.000;9.654;2023-05-16T07:10:16;17.73;;;15.23;;
20884;SDS011;10602;48.000;9.654;2023-05-16T07:12:43;16.57;;;14.00;;
20884;SDS011;10602;48.000;9.654;2023-05-16T07:15:11;16.33;;;14.03;;
20884;SDS011;10602;48.000;9.654;2023-05-16T07:17:40;16.83;;;15.03;;
20884;SDS011;10602;48.000;9.654;2023-05-16T07:20:08;16.07;;;14.37;;
20884;SDS011;10602;48.000;9.654;2023-05-16T07:22:37;15.43;;;13.70;;
20884;SDS011;10602;48.000;9.654;2023-05-16T07:25:06;15.67;;;13.50;;
20884;SDS011;10602;48.000;9.654;2023-05-16T07:27:35;16.77;;;13.93;;
20884;SDS011;10602;48.000;9.654;2023-05-16T07:30:03;16.70;;;14.90;;
20884;SDS011;10602;48.000;9.654;2023-05-16T07:32:31;16.33;;;14.40;;
20884;SDS011;10602;48.000;9.654;2023-05-16T07:34:59;17.57;;;15.67;;
20884;SDS011;10602;48.000;9.654;2023-05-16T07:37:26;18.13;;;14.27;;
20884;SDS011;10602;48.000;9.654;2023-05-16T07:39:54;18.77;;;14.97;;
20884;SDS011;10602;48.000;9.654;2023-05-16T07:42:23;15.50;;;13.90;;
20884;SDS011;10602;48.000;9.654;2023-05-16T07:44:50;17.40;;;15.57;;
20884;SDS011;10602;48.000;9.654;2023-05-16T07:47:18;18.80;;;15.40;;
20884;SDS011;10602;48.000;9.654;2023-05-16T07:49:45;16.57;;;14.80;;
20884;SDS011;10602;48.000;9.654;2023-05-16T07:52:13;18.17;;;16.07;;
20884;SDS011;10602;48.000;9.654;2023-05-16T07:54:40;17.40;;;15.60;;
20884;SDS011;10602;48.000;9.654;2023-05-16T07:57:10;16.17;;;14.47;;
20884;SDS011;10602;48.000;9.654;2023-05-16T07:59:37;17.73;;;15.97;;
20884;SDS011;10602;48.000;9.654;2023-05-16T08:02:05;16.50;;;14.83;;
20884;SDS011;10602;48.000;9.654;2023-05-16T08:04:32;16.10;;;14.03;;
20884;SDS011;10602;48.000;9.654;2023-05-16T08:07:00;16.17;;;14.47;;
20884;SDS011;10602;48.000;9.654;2023-05-16T08:09:28;16.10;;;13.93;;
20884;SDS011;10602;48.000;9.654;2023-05-16T08:11:56;16.13;;;14.53;;
20884;SDS011;10602;48.000;9.654;2023-05-16T08:14:25;16.40;;;14.80;;
20884;SDS011;10602;48.000;9.654;2023-05-16T08:16:53;16.07;;;14.37;;
20884;SDS011;10602;48.000;9.654;2023-05-16T08:19:20;16.70;;;15.00;;
20884;SDS011;10602;48.000;9.654;2023-05-16T08:21:48;16.90;;;15.00;;
20884;SDS011;10602;48.000;9.654;2023-05-16T08:24:15;14.60;;;13.10;;
20884;SDS011;10602;48.000;9.654;2023-05-16T08:26:43;16.27;;;14.40;;
20884;SDS011;10602;48.000;9.654;2023-05-16T08:29:11;16.17;;;14.13;;
20884;SDS011;10602;48.000;9.654;2023-05-16T08:31:39;15.80;;;14.13;;
20884;SDS011;10602;48.000;9.654;2023-05-16T08:34:06;15.03;;;13.53;;
20884;SDS011;10602;48.000;9.654;2023-05-16T08:36:37;16.43;;;14.63;;
20884;SDS011;10602;48.000;9.654;2023-05-16T08:39:05;15.53;;;14.00;;
20884;SDS011;10602;48.000;9.654;2023-05-16T08:41:34;14.37;;;12.87;;
20884;SDS011;10602;48.000;9.654;2023-05-16T08:44:02;14.80;;;13.30;;
20884;SDS011;10602;48.000;9.654;2023-05-16T08:46:30;14.60;;;13.10;;
20884;SDS011;10602;48.000;9.654;2023-05-16T08:49:02;14.43;;;13.00;;
20884;SDS011;10602;48.000;9.654;2023-05-16T08:51:32;14.33;;;12.37;;
20884;SDS011;10602;48.000;9.654;2023-05-16T08:54:05;14.47;;;12.97;;
20884;SDS011;10602;48.000;9.654;2023-05-16T08:56:34;14.17;;;12.67;;
20884;SDS011;10602;48.000;9.654;2023-05-16T08:59:02;14.23;;;12.30;;
20884;SDS011;10602;48.000;9.654;2023-05-16T09:01:31;14.43;;;12.90;;
20884;SDS011;10602;48.000;9.654;2023-05-16T09:03:59;17.17;;;13.73;;
20884;SDS011;10602;48.000;9.654;2023-05-16T09:06:27;14.10;;;12.60;;
20884;SDS011;10602;48.000;9.654;2023-05-16T09:08:54;16.00;;;14.03;;
20884;SDS011;10602;48.000;9.654;2023-05-16T09:11:22;15.37;;;13.77;;
20884;SDS011;10602;48.000;9.654;2023-05-16T09:13:50;15.60;;;13.97;;
20884;SDS011;10602;48.000;9.654;2023-05-16T09:16:18;16.80;;;14.20;;
20884;SDS011;10602;48.000;9.654;2023-05-16T09:18:55;15.83;;;13.63;;
20884;SDS011;10602;48.000;9.654;2023-05-16T09:21:27;15.77;;;14.13;;
20884;SDS011;10602;48.000;9.654;2023-05-16T09:24:06;17.50;;;14.80;;
20884;SDS011;10602;48.000;9.654;2023-05-16T09:26:33;16.93;;;14.00;;
20884;SDS011;10602;48.000;9.654;2023-05-16T09:29:09;17.50;;;15.60;;
20884;SDS011;10602;48.000;9.654;2023-05-16T09:31:37;18.43;;;16.17;;
20884;SDS011;10602;48.000;9.654;2023-05-16T09:34:08;19.23;;;16.63;;
20884;SDS011;10602;48.000;9.654;2023-05-16T09:36:38;17.40;;;15.50;;
20884;SDS011;10602;48.000;9.654;2023-05-16T09:39:06;19.10;;;16.87;;
20884;SDS011;10602;48.000;9.654;2023-05-16T09:41:34;18.37;;;16.40;;
20884;SDS011;10602;48.000;9.654;2023-05-16T09:44:05;18.37;;;15.70;;
20884;SDS011;10602;48.000;9.654;2023-05-16T09:46:33;20.00;;;16.27;;
20884;SDS011;10602;48.000;9.654;2023-05-16T09:49:01;20.43;;;16.77;;
20884;SDS011;10602;48.000;9.654;2023-05-16T09:51:29;18.60;;;16.50;;
20884;SDS011;10602;48.000;9.654;2023-05-16T09:53:57;18.30;;;16.47;;
20884;SDS011;10602;48.000;9.654;2023-05-16T09:56:25;19.13;;;16.97;;
20884;SDS011;10602;48.000;9.654;2023-05-16T09:58:54;19.23;;;16.87;;
20884;SDS011;10602;48.000;9.654;2023-05-16T10:01:21;18.87;;;16.07;;
20884;SDS011;10602;48.000;9.654;2023-05-16T10:03:49;20.43;;;16.67;;
20884;SDS011;10602;48.000;9.654;2023-05-16T10:06:17;18.47;;;16.47;;
20884;SDS011;10602;48.000;9.654;2023-05-16T10:08:45;18.27;;;15.27;;
20884;SDS011;10602;48.000;9.654;2023-05-16T10:11:15;18.37;;;15.57;;
20884;SDS011;10602;48.000;9.654;2023-05-16T10:13:44;16.43;;;14.67;;
20884;SDS011;10602;48.000;9.654;2023-05-16T10:16:14;17.63;;;15.40;;
20884;SDS011;10602;48.000;9.654;2023-05-16T10:18:42;17.10;;;15.30;;
20884;SDS011;10602;48.000;9.654;2023-05-16T10:21:12;17.87;;;15.50;;
20884;SDS011;10602;48.000;9.654;2023-05-16T10:23:41;17.57;;;14.27;;
20884;SDS011;10602;48.000;9.654;2023-05-16T10:26:11;16.57;;;14.80;;
20884;SDS011;10602;48.000;9.654;2023-05-16T10:28:39;17.87;;;15.30;;
20884;SDS011;10602;48.000;9.654;2023-05-16T10:31:08;22.00;;;17.43;;
20884;SDS011;10602;48.000;9.654;2023-05-16T10:33:36;20.33;;;16.23;;
20884;SDS011;10602;48.000;9.654;2023-05-16T10:36:05;21.93;;;18.00;;
20884;SDS011;10602;48.000;9.654;2023-05-16T10:38:34;21.80;;;16.70;;
20884;SDS011;10602;48.000;9.654;2023-05-16T10:41:03;19.07;;;15.07;;
20884;SDS011;10602;48.000;9.654;2023-05-16T10:43:32;18.67;;;15.47;;
20884;SDS011;10602;48.000;9.654;2023-05-16T10:46:03;19.80;;;16.80;;
20884;SDS011;10602;48.000;9.654;2023-05-16T10:48:38;18.53;;;16.50;;
20884;SDS011;10602;48.000;9.654;2023-05-16T10:52:08;19.70;;;15.70;;
20884;SDS011;10602;48.000;9.654;2023-05-16T10:53:52;19.30;;;16.80;;
20884;SDS011;10602;48.000;9.654;2023-05-16T10:56:24;18.40;;;15.60;;
20884;SDS011;10602;48.000;9.654;2023-05-16T10:58:53;19.50;;;16.30;;
20884;SDS011;10602;48.000;9.654;2023-05-16T11:01:28;17.37;;;15.10;;
20884;SDS011;10602;48.000;9.654;2023-05-16T11:04:06;18.67;;;15.33;;
20884;SDS011;10602;48.000;9.654;2023-05-16T11:06:43;19.20;;;15.53;;
20884;SDS011;10602;48.000;9.654;2023-05-16T11:14:27;17.20;;;15.30;;
20884;SDS011;10602;48.000;9.654;2023-05-16T11:17:13;16.97;;;15.13;;
20884;SDS011;10602;48.000;9.654;2023-05-16T11:19:42;16.83;;;15.03;;
20884;SDS011;10602;48.000;9.654;2023-05-16T11:27:34;15.03;;;13.23;;
20884;SDS011;10602;48.000;9.654;2023-05-16T11:32:36;15.00;;;12.37;;
20884;SDS011;10602;48.000;9.654;2023-05-16T11:35:06;13.10;;;11.70;;
20884;SDS011;10602;48.000;9.654;2023-05-16T11:37:34;17.47;;;13.63;;
20884;SDS011;10602;48.000;9.654;2023-05-16T11:40:04;13.73;;;11.87;;
20884;SDS011;10602;48.000;9.654;2023-05-16T11:42:37;11.70;;;10.50;;
20884;SDS011;10602;48.000;9.654;2023-05-16T11:45:09;14.40;;;11.80;;
20884;SDS011;10602;48.000;9.654;2023-05-16T11:47:39;12.50;;;10.93;;
20884;SDS011;10602;48.000;9.654;2023-05-16T11:50:10;12.40;;;10.73;;
20884;SDS011;10602;48.000;9.654;2023-05-16T11:52:43;12.03;;;10.77;;
20884;SDS011;10602;48.000;9.654;2023-05-16T11:55:12;15.17;;;9.53;;
20884;SDS011;10602;48.000;9.654;2023-05-16T11:57:43;11.53;;;10.33;;
20884;SDS011;10602;48.000;9.654;2023-05-16T12:00:13;10.80;;;9.77;;
20884;SDS011;10602;48.000;9.654;2023-05-16T12:02:45;11.10;;;9.90;;
20884;SDS011;10602;48.000;9.654;2023-05-16T12:05:17;11.83;;;10.63;;
20884;SDS011;10602;48.000;9.654;2023-05-16T12:07:47;11.13;;;10.03;;
20884;SDS011;10602;48.000;9.654;2023-05-16T12:10:15;11.00;;;9.87;;
20884;SDS011;10602;48.000;9.654;2023-05-16T12:12:45;11.43;;;9.30;;
20884;SDS011;10602;48.000;9.654;2023-05-16T12:15:14;10.57;;;9.47;;
20884;SDS011;10602;48.000;9.654;2023-05-16T12:17:41;10.50;;;9.50;;
20884;SDS011;10602;48.000;9.654;2023-05-16T12:20:09;11.20;;;9.70;;
20884;SDS011;10602;48.000;9.654;2023-05-16T12:22:39;10.33;;;9.33;;
20884;SDS011;10602;48.000;9.654;2023-05-16T12:25:20;10.10;;;9.20;;
20884;SDS011;10602;48.000;9.654;2023-05-16T12:27:57;10.00;;;9.00;;
20884;SDS011;10602;48.000;9.654;2023-05-16T12:30:26;9.97;;;8.87;;
20884;SDS011;10602;48.000;9.654;2023-05-16T12:32:55;10.80;;;9.20;;
20884;SDS011;10602;48.000;9.654;2023-05-16T12:35:24;10.47;;;8.60;;
20884;SDS011;10602;48.000;9.654;2023-05-16T12:37:53;9.53;;;8.63;;
20884;SDS011;10602;48.000;9.654;2023-05-16T12:40:21;9.40;;;8.50;;
20884;SDS011;10602;48.000;9.654;2023-05-16T12:42:49;9.80;;;8.80;;
20884;SDS011;10602;48.000;9.654;2023-05-16T12:45:18;9.53;;;8.60;;
20884;SDS011;10602;48.000;9.654;2023-05-16T12:47:47;9.70;;;8.70;;
20884;SDS011;10602;48.000;9.654;2023-05-16T12:50:16;9.57;;;8.37;;
20884;SDS011;10602;48.000;9.654;2023-05-16T12:52:50;9.33;;;8.43;;
20884;SDS011;10602;48.000;9.654;2023-05-16T12:55:18;8.77;;;7.97;;
20884;SDS011;10602;48.000;9.654;2023-05-16T12:57:47;9.00;;;8.20;;
20884;SDS011;10602;48.000;9.654;2023-05-16T13:00:17;9.50;;;8.70;;
20884;SDS011;10602;48.000;9.654;2023-05-16T13:02:46;8.93;;;8.03;;
20884;SDS011;10602;48.000;9.654;2023-05-16T13:05:14;9.10;;;8.20;;
20884;SDS011;10602;48.000;9.654;2023-05-16T13:07:42;9.00;;;8.10;;
20884;SDS011;10602;48.000;9.654;2023-05-16T13:10:10;9.67;;;8.13;;
20884;SDS011;10602;48.000;9.654;2023-05-16T13:12:38;8.93;;;8.03;;
20884;SDS011;10602;48.000;9.654;2023-05-16T13:15:07;8.90;;;8.10;;
20884;SDS011;10602;48.000;9.654;2023-05-16T13:17:37;10.43;;;9.33;;
20884;SDS011;10602;48.000;9.654;2023-05-16T13:20:05;9.57;;;8.53;;
20884;SDS011;10602;48.000;9.654;2023-05-16T13:22:35;9.70;;;8.77;;
20884;SDS011;10602;48.000;9.654;2023-05-16T13:25:02;9.33;;;8.20;;
20884;SDS011;10602;48.000;9.654;2023-05-16T13:27:31;10.43;;;9.37;;
20884;SDS011;10602;48.000;9.654;2023-05-16T13:29:58;10.50;;;9.50;;
20884;SDS011;10602;48.000;9.654;2023-05-16T13:32:26;9.30;;;8.40;;
20884;SDS011;10602;48.000;9.654;2023-05-16T13:34:54;10.63;;;8.73;;
20884;SDS011;10602;48.000;9.654;2023-05-16T13:37:21;9.60;;;8.60;;
20884;SDS011;10602;48.000;9.654;2023-05-16T13:39:52;10.03;;;9.03;;
20884;SDS011;10602;48.000;9.654;2023-05-16T13:42:20;10.87;;;8.63;;
20884;SDS011;10602;48.000;9.654;2023-05-16T13:44:48;10.57;;;8.50;;
20884;SDS011;10602;48.000;9.654;2023-05-16T13:47:15;10.33;;;8.93;;
20884;SDS011;10602;48.000;9.654;2023-05-16T13:49:43;9.77;;;8.80;;
20884;SDS011;10602;48.000;9.654;2023-05-16T13:52:11;10.03;;;8.63;;
20884;SDS011;10602;48.000;9.654;2023-05-16T13:54:39;11.57;;;8.60;;
20884;SDS011;10602;48.000;9.654;2023-05-16T13:57:06;9.73;;;8.70;;
20884;SDS011;10602;48.000;9.654;2023-05-16T13:59:34;10.93;;;9.07;;
20884;SDS011;10602;48.000;9.654;2023-05-16T14:02:02;10.00;;;9.00;;
20884;SDS011;10602;48.000;9.654;2023-05-16T14:04:29;12.10;;;9.80;;
20884;SDS011;10602;48.000;9.654;2023-05-16T14:06:57;11.23;;;9.93;;
20884;SDS011;10602;48.000;9.654;2023-05-16T14:09:24;10.30;;;9.30;;
20884;SDS011;10602;48.000;9.654;2023-05-16T14:11:52;9.77;;;8.77;;
20884;SDS011;10602;48.000;9.654;2023-05-16T14:14:19;9.27;;;8.37;;
20884;SDS011;10602;48.000;9.654;2023-05-16T14:16:47;11.70;;;9.47;;
20884;SDS011;10602;48.000;9.654;2023-05-16T14:19:15;10.50;;;8.97;;
20884;SDS011;10602;48.000;9.654;2023-05-16T14:21:43;11.63;;;9.90;;
20884;SDS011;10602;48.000;9.654;2023-05-16T14:24:10;11.03;;;9.37;;
20884;SDS011;10602;48.000;9.654;2023-05-16T14:26:38;10.97;;;9.87;;
20884;SDS011;10602;48.000;9.654;2023-05-16T14:29:05;10.23;;;9.23;;
20884;SDS011;10602;48.000;9.654;2023-05-16T14:31:33;10.50;;;9.23;;
20884;SDS011;10602;48.000;9.654;2023-05-16T14:34:03;11.57;;;9.60;;
20884;SDS011;10602;48.000;9.654;2023-05-16T14:36:31;9.90;;;8.87;;
20884;SDS011;10602;48.000;9.654;2023-05-16T14:38:59;13.77;;;11.40;;
20884;SDS011;10602;48.000;9.654;2023-05-16T14:41:27;12.50;;;11.17;;
20884;SDS011;10602;48.000;9.654;2023-05-16T14:43:54;9.67;;;8.77;;
20884;SDS011;10602;48.000;9.654;2023-05-16T14:46:22;9.67;;;8.70;;
20884;SDS011;10602;48.000;9.654;2023-05-16T14:48:49;11.40;;;10.07;;
20884;SDS011;10602;48.000;9.654;2023-05-16T14:51:17;11.53;;;10.20;;
20884;SDS011;10602;48.000;9.654;2023-05-16T14:53:44;15.20;;;12.73;;
20884;SDS011;10602;48.000;9.654;2023-05-16T14:56:12;12.13;;;10.43;;
20884;SDS011;10602;48.000;9.654;2023-05-16T14:58:39;12.07;;;9.87;;
20884;SDS011;10602;48.000;9.654;2023-05-16T15:01:07;13.87;;;10.40;;
20884;SDS011;10602;48.000;9.654;2023-05-16T15:03:35;13.17;;;9.87;;
20884;SDS011;10602;48.000;9.654;2023-05-16T15:06:05;11.60;;;10.40;;